Portada
METAR-TAF:

METAR-TAF

Aeroports :

Kuusamo, Finlàndia

latitud: 65-58N, longitud: 029-11E, altitud: 262 m

Observació

L'informe es va fer fa 14 minuts, a les 10:20 UTC
Vent 17 kt del Nord/Nord-Oest amb ràfegues de 27 kt
Temperatura 1°C
Humitat 64%
Pressió 998 hPa
Visibilitat 10 km o més
Cel cobert a una alçada de 2900 ft
xàfecs de pluja

METAR: EFKS 091020Z AUTO 34017G27KT 9999 -SHRA OVC029 01/M05 Q0998

Hora: 13:34 (10:34 UTC)


TAF: manca

Observacions i pronòstics meteorològics de més de 4000 aeroports (METAR i TAF).

Les estacions disponibles són els punts grocs i vermells al mapa.

Posi el ratolí al punt desitjat per veure el nom de l'estació.

Feu clic per veure les observacions i els pronòstics meteorològics.

Per canviar el mapa: feu clic els botons verds amb una creu de color negre per apropar; al botó verd amb un guió per allunyar la imatge; o en les fletxes verdes per a mapes adjacents.


METAR-TAF: